Time;durP1;ratioP1;P1;durP2;ratioP2;P2;SDS_P1;SDS_P2;PMS_P1;PMS_P2;Temp;Humidity;BMP_temperature;BMP_pressure;BME280_temperature;BME280_humidity;BME280_pressure;Samples;Min_cycle;Max_cycle;Signal;HPM_P1;HPM_P2
2023/07/21 00:00:53;;;;;;;3.90;0.95;;;;;;;20.90;79.79;95814.56;5077488;28;20606;-71
2023/07/21 00:03:19;;;;;;;1.55;0.88;;;;;;;20.57;81.80;95826.44;5077620;28;20208;-68
2023/07/21 00:05:46;;;;;;;3.53;0.90;;;;;;;20.54;80.76;95819.69;5077628;28;20214;-71
2023/07/21 00:08:14;;;;;;;6.47;1.20;;;;;;;20.34;81.91;95823.97;5077154;28;20204;-68
2023/07/21 00:10:40;;;;;;;1.02;0.90;;;;;;;20.09;83.75;95809.44;5077607;28;20599;-68
2023/07/21 00:13:07;;;;;;;8.73;1.35;;;;;;;20.52;82.58;95807.63;5077476;28;20202;-71
2023/07/21 00:15:33;;;;;;;2.17;1.20;;;;;;;20.39;83.56;95800.78;5077981;28;20203;-67
2023/07/21 00:18:01;;;;;;;1.40;0.82;;;;;;;20.38;85.12;95809.06;5076476;28;20256;-70
2023/07/21 00:20:29;;;;;;;2.22;1.10;;;;;;;20.28;84.17;95806.25;5077655;28;20269;-68
2023/07/21 00:22:55;;;;;;;1.52;1.02;;;;;;;20.25;84.75;95804.03;5077292;28;20261;-69
2023/07/21 00:25:22;;;;;;;2.00;1.10;;;;;;;20.28;84.91;95792.88;5077569;28;20211;-67
2023/07/21 00:27:48;;;;;;;1.58;0.98;;;;;;;19.95;85.88;95797.47;5076928;28;20215;-68
2023/07/21 00:30:15;;;;;;;2.13;1.17;;;;;;;19.92;85.70;95796.09;5077803;28;20911;-71
2023/07/21 00:32:43;;;;;;;0.75;0.75;;;;;;;20.01;85.91;95807.16;5077443;28;20200;-67
2023/07/21 00:35:12;;;;;;;1.83;0.82;;;;;;;20.08;85.78;95805.94;5076638;28;20412;-69
2023/07/21 00:37:40;;;;;;;1.95;0.90;;;;;;;19.83;86.26;95799.38;5076560;28;20211;-69
2023/07/21 00:40:09;;;;;;;3.38;1.55;;;;;;;19.86;86.61;95794.34;5076590;28;20223;-68
2023/07/21 00:42:36;;;;;;;2.50;0.88;;;;;;;19.72;85.86;95798.41;5076259;28;21035;-69
2023/07/21 00:45:03;;;;;;;1.33;0.80;;;;;;;19.63;86.46;95793.72;5077285;28;21027;-68
2023/07/21 00:47:30;;;;;;;2.13;1.50;;;;;;;19.61;86.52;95796.66;5076001;28;20211;-68
2023/07/21 00:49:57;;;;;;;1.25;0.90;;;;;;;19.51;87.35;95797.53;5076435;28;20227;-70
2023/07/21 00:52:27;;;;;;;2.42;1.20;;;;;;;19.75;86.67;95800.59;5077081;28;20225;-68
2023/07/21 00:54:53;;;;;;;1.45;1.15;;;;;;;19.48;87.25;95790.00;5077000;28;20220;-70
2023/07/21 00:57:21;;;;;;;1.48;1.00;;;;;;;19.19;88.35;95786.53;5076371;28;20200;-69
2023/07/21 00:59:48;;;;;;;1.48;0.80;;;;;;;19.25;88.72;95792.81;5076536;28;20223;-67
2023/07/21 01:02:14;;;;;;;1.55;1.08;;;;;;;19.06;89.56;95792.19;5077040;28;20683;-71
2023/07/21 01:04:41;;;;;;;3.60;0.93;;;;;;;19.19;89.93;95796.44;5076909;28;20210;-68
2023/07/21 01:07:09;;;;;;;1.65;0.80;;;;;;;19.21;90.09;95789.78;5075809;28;20757;-70
2023/07/21 01:09:39;;;;;;;3.28;1.10;;;;;;;19.30;89.65;95785.69;5076508;28;20273;-69
2023/07/21 01:12:07;;;;;;;1.23;0.77;;;;;;;19.11;90.76;95791.50;5076833;28;20728;-68
2023/07/21 01:14:34;;;;;;;1.83;1.00;;;;;;;18.99;92.19;95785.34;5076566;28;20204;-68
2023/07/21 01:17:02;;;;;;;1.27;0.98;;;;;;;19.10;91.93;95779.19;5075519;28;20200;-71
2023/07/21 01:19:30;;;;;;;2.13;1.10;;;;;;;19.19;91.88;95775.06;5076529;28;20356;-71
2023/07/21 01:22:00;;;;;;;1.77;1.10;;;;;;;19.24;91.53;95783.16;5076599;28;20200;-67
2023/07/21 01:24:32;;;;;;;4.75;1.00;;;;;;;19.26;90.83;95770.38;5076696;28;21283;-71
2023/07/21 01:27:02;;;;;;;4.90;1.10;;;;;;;19.24;91.27;95764.47;5076026;28;20261;-71
2023/07/21 01:29:30;;;;;;;1.73;1.00;;;;;;;18.89;91.73;95757.66;5076349;28;20681;-71
2023/07/21 01:31:58;;;;;;;1.15;0.90;;;;;;;18.92;92.17;95757.97;5076500;28;20207;-69
2023/07/21 01:34:24;;;;;;;1.10;1.00;;;;;;;18.44;94.67;95759.44;5076803;28;20238;-69
2023/07/21 01:36:51;;;;;;;1.40;0.85;;;;;;;18.52;95.09;95761.72;5075467;28;20694;-69
2023/07/21 01:39:18;;;;;;;1.40;0.93;;;;;;;18.69;94.96;95752.75;5076315;28;20235;-69
2023/07/21 01:41:46;;;;;;;2.13;1.13;;;;;;;18.69;95.23;95754.63;5076746;28;20676;-66
2023/07/21 01:44:14;;;;;;;1.42;1.10;;;;;;;18.93;94.81;95756.94;5077180;28;20196;-66
2023/07/21 01:46:41;;;;;;;1.35;0.80;;;;;;;18.60;95.49;95764.84;5075720;28;20711;-67
2023/07/21 01:49:07;;;;;;;2.45;1.00;;;;;;;18.57;95.61;95762.66;5075130;28;20192;-67
2023/07/21 01:51:35;;;;;;;1.10;0.75;;;;;;;18.82;94.64;95757.78;5076888;28;20563;-66
2023/07/21 01:54:09;;;;;;;1.65;1.10;;;;;;;18.87;94.98;95759.75;5076504;28;20200;-65
2023/07/21 01:56:41;;;;;;;1.08;0.95;;;;;;;18.87;94.91;95763.22;5076157;28;20210;-69
2023/07/21 01:59:11;;;;;;;14.57;1.52;;;;;;;18.85;95.73;95751.16;5075105;28;20223;-69
2023/07/21 02:01:40;;;;;;;0.88;0.80;;;;;;;18.59;98.95;95754.41;5075992;28;20204;-67
2023/07/21 02:04:07;;;;;;;2.20;1.08;;;;;;;18.34;100.00;95760.06;5075994;28;20207;-66
2023/07/21 02:06:34;;;;;;;3.15;1.40;;;;;;;18.46;98.94;95752.03;5076583;28;20208;-67
2023/07/21 02:09:01;;;;;;;2.47;1.00;;;;;;;18.64;97.36;95747.31;5075334;28;20609;-65
2023/07/21 02:11:27;;;;;;;2.25;1.33;;;;;;;18.74;97.52;95752.03;5076642;28;20199;-66
2023/07/21 02:13:54;;;;;;;2.45;1.27;;;;;;;18.83;96.64;95743.41;5079905;28;20529;-69
2023/07/21 02:16:20;;;;;;;2.70;1.58;;;;;;;18.55;99.61;95745.25;5079904;28;20211;-66
2023/07/21 02:18:48;;;;;;;2.00;0.90;;;;;;;19.04;98.11;95734.69;5078611;28;20734;-67
2023/07/21 02:21:14;;;;;;;1.65;0.90;;;;;;;18.91;97.50;95739.53;5080003;28;20219;-69
2023/07/21 02:23:41;;;;;;;3.92;0.90;;;;;;;18.84;98.30;95745.03;5079749;28;20203;-66
2023/07/21 02:26:07;;;;;;;2.10;1.20;;;;;;;18.69;100.00;95739.41;5079510;28;20204;-70
2023/07/21 02:28:34;;;;;;;1.83;1.25;;;;;;;18.83;100.00;95743.41;5078692;28;20208;-68
2023/07/21 02:31:03;;;;;;;2.88;1.23;;;;;;;18.88;99.38;95734.69;5079378;28;20224;-69
2023/07/21 02:33:30;;;;;;;4.32;1.13;;;;;;;18.78;100.00;95740.63;5079695;28;20230;-67
2023/07/21 02:35:58;;;;;;;1.13;0.85;;;;;;;18.93;99.73;95732.91;5079313;28;20672;-66
2023/07/21 02:38:25;;;;;;;3.05;1.05;;;;;;;18.91;99.16;95731.53;5078430;28;20208;-67
2023/07/21 02:40:52;;;;;;;1.05;0.88;;;;;;;19.04;97.37;95724.00;5079006;28;20232;-66
2023/07/21 02:43:18;;;;;;;3.80;1.10;;;;;;;18.96;100.00;95721.75;5079064;28;20204;-70
2023/07/21 02:45:50;;;;;;;2.05;1.00;;;;;;;19.19;98.11;95722.44;5079460;28;20204;-67
2023/07/21 02:48:17;;;;;;;2.75;1.30;;;;;;;19.03;98.50;95717.06;5078709;28;20208;-67
2023/07/21 02:50:45;;;;;;;1.92;0.90;;;;;;;18.76;99.27;95708.03;5078303;28;20223;-66
2023/07/21 02:53:13;;;;;;;1.90;0.85;;;;;;;18.66;99.82;95715.88;5076104;28;20682;-67
2023/07/21 02:55:40;;;;;;;2.83;0.90;;;;;;;18.80;99.06;95706.50;5079895;28;20211;-70
2023/07/21 02:58:06;;;;;;;1.70;0.80;;;;;;;18.85;99.22;95708.44;5078401;28;20214;-66
2023/07/21 03:00:33;;;;;;;1.90;1.00;;;;;;;18.91;97.36;95708.28;5078264;28;20236;-68
2023/07/21 03:03:00;;;;;;;1.92;1.13;;;;;;;19.03;97.95;95711.72;5079106;28;20227;-65
2023/07/21 03:05:28;;;;;;;1.50;0.90;;;;;;;18.81;99.40;95713.44;5078947;28;20204;-67
2023/07/21 03:07:54;;;;;;;1.67;1.00;;;;;;;18.93;97.85;95717.69;5077536;28;20204;-66
2023/07/21 03:10:22;;;;;;;3.17;1.58;;;;;;;19.08;98.92;95725.19;5078740;28;20231;-68
2023/07/21 03:12:49;;;;;;;2.38;0.80;;;;;;;18.77;100.00;95728.31;5079006;28;20296;-67
2023/07/21 03:15:16;;;;;;;1.98;1.00;;;;;;;18.80;100.00;95719.03;5078260;28;20208;-67
2023/07/21 03:17:42;;;;;;;2.17;1.10;;;;;;;18.90;100.00;95712.00;5077628;28;20204;-69
2023/07/21 03:20:12;;;;;;;4.30;1.10;;;;;;;18.92;100.00;95715.25;5078411;28;20238;-70
2023/07/21 03:22:39;;;;;;;1.98;1.33;;;;;;;18.99;100.00;95716.72;5077107;28;20262;-69
2023/07/21 03:25:07;;;;;;;2.33;1.08;;;;;;;19.28;99.95;95720.97;5078703;28;20200;-68
2023/07/21 03:27:34;;;;;;;2.85;1.02;;;;;;;19.48;98.83;95720.50;5077473;28;20840;-67
2023/07/21 03:30:03;;;;;;;1.40;0.82;;;;;;;19.24;98.21;95725.19;5078176;28;20234;-67
2023/07/21 03:32:29;;;;;;;1.30;0.90;;;;;;;19.04;98.47;95724.00;5078443;28;20291;-69
2023/07/21 03:34:57;;;;;;;2.10;1.08;;;;;;;18.97;98.76;95732.19;5078565;28;20577;-69
2023/07/21 03:37:23;;;;;;;1.35;1.00;;;;;;;19.09;98.73;95730.31;5077637;28;20204;-69
2023/07/21 03:39:50;;;;;;;1.95;1.33;;;;;;;18.97;99.51;95734.84;5077685;28;20809;-70
2023/07/21 03:42:16;;;;;;;5.10;1.05;;;;;;;18.93;99.98;95740.91;5078114;28;20204;-66
2023/07/21 03:44:47;;;;;;;1.48;0.95;;;;;;;19.30;98.26;95734.91;5077811;28;20204;-68
2023/07/21 03:47:15;;;;;;;1.02;0.70;;;;;;;19.01;100.00;95740.53;5077368;28;20204;-68
2023/07/21 03:49:42;;;;;;;2.10;1.40;;;;;;;18.95;100.00;95734.28;5078363;28;20304;-67
2023/07/21 03:52:08;;;;;;;5.00;1.17;;;;;;;18.86;100.00;95731.44;5078252;28;20210;-68
2023/07/21 03:54:35;;;;;;;2.03;1.20;;;;;;;18.83;100.00;95722.03;5077772;28;20199;-67
2023/07/21 03:57:01;;;;;;;2.90;1.33;;;;;;;18.86;100.00;95716.22;5077696;28;20211;-69
2023/07/21 03:59:29;;;;;;;1.85;1.23;;;;;;;19.09;100.00;95714.28;5077627;28;20243;-66
2023/07/21 04:01:57;;;;;;;2.45;1.13;;;;;;;19.31;100.00;95719.69;5077111;28;20195;-67
2023/07/21 04:04:23;;;;;;;2.75;1.33;;;;;;;18.94;100.00;95729.19;5077788;28;20210;-69
2023/07/21 04:06:50;;;;;;;1.60;1.20;;;;;;;18.97;100.00;95729.50;5078221;28;20219;-67
2023/07/21 04:09:16;;;;;;;1.13;1.02;;;;;;;18.81;100.00;95742.03;5077149;28;20215;-68
2023/07/21 04:11:43;;;;;;;2.78;1.25;;;;;;;18.79;100.00;95736.91;5077179;28;20686;-68
2023/07/21 04:14:10;;;;;;;1.50;1.00;;;;;;;18.50;100.00;95727.28;5078483;28;20203;-67
2023/07/21 04:16:36;;;;;;;2.35;1.23;;;;;;;18.66;100.00;95728.38;5076552;28;21138;-67
2023/07/21 04:19:04;;;;;;;1.17;0.85;;;;;;;19.07;100.00;95720.91;5076342;28;20777;-71
2023/07/21 04:21:31;;;;;;;1.95;1.20;;;;;;;18.89;100.00;95718.41;5077401;28;20995;-69
2023/07/21 04:23:57;;;;;;;5.22;1.33;;;;;;;18.95;100.00;95715.59;5077339;28;20200;-67
2023/07/21 04:26:24;;;;;;;3.08;1.30;;;;;;;18.79;100.00;95714.75;5076811;28;20200;-68
2023/07/21 04:28:50;;;;;;;2.35;1.30;;;;;;;18.94;100.00;95713.19;5076910;28;20218;-67
2023/07/21 04:31:22;;;;;;;2.15;1.10;;;;;;;19.10;100.00;95723.09;5077040;28;20258;-67
2023/07/21 04:33:49;;;;;;;2.22;1.33;;;;;;;19.26;100.00;95723.09;5076984;28;20330;-67
2023/07/21 04:36:17;;;;;;;3.65;1.25;;;;;;;19.28;100.00;95731.66;5077100;28;20215;-67
2023/07/21 04:38:43;;;;;;;2.92;1.30;;;;;;;19.06;100.00;95730.75;5076684;28;20696;-68
2023/07/21 04:41:12;;;;;;;2.58;1.40;;;;;;;19.47;100.00;95725.03;5076957;28;20238;-67
2023/07/21 04:43:39;;;;;;;3.35;1.58;;;;;;;19.17;100.00;95723.72;5076446;28;20207;-67
2023/07/21 04:46:05;;;;;;;1.73;1.05;;;;;;;19.25;100.00;95726.03;5077488;28;20200;-68
2023/07/21 04:48:32;;;;;;;1.88;1.20;;;;;;;19.26;100.00;95731.13;5076360;28;20918;-67
2023/07/21 04:50:58;;;;;;;1.67;1.27;;;;;;;19.33;100.00;95726.41;5076972;28;20223;-68
2023/07/21 04:53:26;;;;;;;4.35;1.40;;;;;;;19.50;100.00;95729.09;5077018;28;20207;-66
2023/07/21 04:55:56;;;;;;;2.70;1.20;;;;;;;19.51;100.00;95726.16;5077116;28;20203;-67
2023/07/21 04:58:22;;;;;;;2.72;1.25;;;;;;;19.39;100.00;95724.66;5076428;28;20210;-67
2023/07/21 05:00:49;;;;;;;1.48;1.10;;;;;;;19.47;100.00;95726.91;5076225;28;20387;-67
2023/07/21 05:03:15;;;;;;;2.58;1.42;;;;;;;19.54;100.00;95719.53;5077108;28;20203;-67
2023/07/21 05:05:43;;;;;;;1.20;0.93;;;;;;;19.36;100.00;95722.44;5077172;28;20292;-67
2023/07/21 05:08:09;;;;;;;3.20;1.10;;;;;;;19.49;100.00;95719.44;5075367;28;20691;-67
2023/07/21 05:10:37;;;;;;;3.10;1.73;;;;;;;19.78;99.59;95705.72;5076337;28;20220;-67
2023/07/21 05:13:06;;;;;;;7.80;1.45;;;;;;;19.62;99.65;95704.69;5077928;28;20571;-67
2023/07/21 05:15:35;;;;;;;3.40;1.15;;;;;;;19.96;99.73;95713.47;5076647;28;20203;-67
2023/07/21 05:18:01;;;;;;;1.27;0.98;;;;;;;19.96;97.73;95714.31;5074981;28;20852;-67
2023/07/21 05:20:28;;;;;;;2.08;1.25;;;;;;;20.06;96.42;95714.44;5076544;28;21038;-67
2023/07/21 05:22:54;;;;;;;1.27;1.10;;;;;;;20.32;96.64;95721.72;5076953;28;20199;-71
2023/07/21 05:25:21;;;;;;;3.15;1.80;;;;;;;20.39;97.56;95712.47;5076155;28;20200;-70
2023/07/21 05:27:49;;;;;;;3.50;1.40;;;;;;;20.74;96.14;95709.41;5075588;28;21112;-70
2023/07/21 05:30:16;;;;;;;2.22;0.93;;;;;;;20.69;95.25;95714.69;5076538;28;20250;-70
2023/07/21 05:32:43;;;;;;;2.67;1.27;;;;;;;20.60;96.47;95716.19;5076365;28;20204;-69
2023/07/21 05:35:10;;;;;;;2.05;1.60;;;;;;;20.65;97.90;95713.56;5076416;28;20684;-67
2023/07/21 05:37:37;;;;;;;1.75;1.10;;;;;;;20.49;96.26;95703.72;5075480;28;20203;-68
2023/07/21 05:40:06;;;;;;;4.65;1.60;;;;;;;20.59;92.24;95701.19;5076183;28;20859;-68
2023/07/21 05:42:32;;;;;;;1.73;1.13;;;;;;;20.59;91.25;95699.28;5076391;28;20199;-70
2023/07/21 05:45:00;;;;;;;2.40;1.30;;;;;;;20.99;92.70;95697.88;5076763;28;21118;-67
2023/07/21 05:47:27;;;;;;;4.55;2.15;;;;;;;20.82;92.63;95699.03;5077879;28;20207;-68
2023/07/21 05:50:00;;;;;;;1.77;1.23;;;;;;;20.95;88.81;95694.09;5079976;28;20707;-68
2023/07/21 05:52:27;;;;;;;2.28;1.30;;;;;;;21.04;84.87;95697.94;5080243;28;20291;-69
2023/07/21 05:54:53;;;;;;;2.72;1.20;;;;;;;21.12;80.46;95702.03;5080222;28;20204;-71
2023/07/21 05:57:20;;;;;;;2.50;1.50;;;;;;;20.87;78.18;95702.59;5078973;28;20671;-67
2023/07/21 05:59:46;;;;;;;2.58;1.20;;;;;;;20.96;82.61;95703.75;5080109;28;20244;-68
2023/07/21 06:02:14;;;;;;;3.28;1.40;;;;;;;21.61;82.17;95702.47;5079644;28;20212;-70
2023/07/21 06:04:42;;;;;;;2.22;1.42;;;;;;;21.42;79.91;95703.06;5079843;28;21097;-66
2023/07/21 06:07:09;;;;;;;2.10;1.17;;;;;;;21.69;75.36;95706.50;5079209;28;20212;-71
2023/07/21 06:09:36;;;;;;;4.47;1.10;;;;;;;21.68;73.56;95705.72;5080068;28;20238;-66
2023/07/21 06:12:02;;;;;;;2.50;1.05;;;;;;;21.92;73.06;95701.59;5079473;28;20192;-69
2023/07/21 06:14:29;;;;;;;3.50;1.23;;;;;;;22.00;72.92;95709.13;5080001;28;20200;-72
2023/07/21 06:16:55;;;;;;;1.60;1.08;;;;;;;21.99;75.12;95706.72;5079745;28;20207;-68
2023/07/21 06:19:23;;;;;;;2.15;1.50;;;;;;;22.36;79.94;95703.69;5079152;28;20879;-67
2023/07/21 06:21:50;;;;;;;4.85;1.40;;;;;;;22.07;78.44;95699.78;5079184;28;20227;-72
2023/07/21 06:24:17;;;;;;;1.95;1.17;;;;;;;22.04;75.61;95698.69;5080992;28;20238;-71
2023/07/21 06:26:43;;;;;;;1.27;1.08;;;;;;;22.14;76.53;95703.03;5079746;28;20207;-67
2023/07/21 06:29:10;;;;;;;1.95;1.10;;;;;;;22.03;77.56;95702.44;5078574;28;20204;-71
2023/07/21 06:31:36;;;;;;;1.95;1.20;;;;;;;22.06;78.29;95708.09;5079635;28;20210;-71
2023/07/21 06:34:03;;;;;;;2.17;1.27;;;;;;;21.62;80.60;95711.28;5079818;28;20206;-68
2023/07/21 06:36:31;;;;;;;1.98;1.50;;;;;;;22.00;81.03;95697.59;5078906;28;20211;-68
2023/07/21 06:38:58;;;;;;;1.75;1.08;;;;;;;21.92;81.60;95700.75;5079147;28;20582;-67
2023/07/21 06:41:24;;;;;;;1.90;0.88;;;;;;;22.07;82.09;95694.41;5078429;28;20229;-68
2023/07/21 06:43:51;;;;;;;2.47;1.10;;;;;;;22.21;80.79;95694.75;5079435;28;20211;-71
2023/07/21 06:46:18;;;;;;;2.60;1.25;;;;;;;22.36;81.85;95703.69;5080107;28;20217;-71
2023/07/21 06:48:44;;;;;;;1.90;1.05;;;;;;;22.45;81.47;95702.13;5079100;28;20200;-66
2023/07/21 06:51:11;;;;;;;1.88;1.13;;;;;;;22.60;82.76;95694.13;5079236;28;20227;-68
2023/07/21 06:53:39;;;;;;;2.97;1.48;;;;;;;22.70;75.43;95688.78;5079747;28;20737;-70
2023/07/21 06:56:05;;;;;;;2.80;0.93;;;;;;;22.37;74.48;95685.72;5079584;28;20204;-67
2023/07/21 06:58:32;;;;;;;1.98;0.98;;;;;;;22.57;75.90;95689.28;5078159;28;20214;-70
2023/07/21 07:01:00;;;;;;;2.55;1.40;;;;;;;22.79;72.85;95684.50;5078370;28;20313;-67
2023/07/21 07:03:27;;;;;;;2.13;1.15;;;;;;;23.09;73.94;95681.91;5079763;28;20292;-67
2023/07/21 07:05:53;;;;;;;6.93;1.45;;;;;;;22.39;75.45;95692.44;5079805;28;20208;-72
2023/07/21 07:08:20;;;;;;;3.78;1.80;;;;;;;22.73;75.74;95693.63;5079227;28;20203;-67
2023/07/21 07:10:49;;;;;;;4.03;2.22;;;;;;;23.38;72.49;95692.69;5079521;28;20691;-67
2023/07/21 07:13:15;;;;;;;5.93;0.85;;;;;;;23.52;73.93;95688.38;5079302;28;20207;-66
2023/07/21 07:15:42;;;;;;;2.65;1.58;;;;;;;23.68;72.27;95698.03;5079154;28;20692;-67
2023/07/21 07:18:10;;;;;;;2.53;1.35;;;;;;;23.60;72.42;95698.59;5078617;28;20206;-67
2023/07/21 07:20:36;;;;;;;2.65;1.58;;;;;;;23.44;72.10;95702.34;5078867;28;20234;-68
2023/07/21 07:23:03;;;;;;;5.07;1.23;;;;;;;23.40;71.08;95703.97;5079560;28;20253;-67
2023/07/21 07:25:29;;;;;;;1.42;0.90;;;;;;;23.40;72.52;95703.97;5078757;28;20206;-67
2023/07/21 07:27:57;;;;;;;3.28;1.55;;;;;;;23.37;70.83;95701.03;5078342;28;20207;-67
2023/07/21 07:30:24;;;;;;;4.70;1.08;;;;;;;23.26;73.15;95707.47;5078421;28;20962;-68
2023/07/21 07:32:50;;;;;;;2.38;1.48;;;;;;;23.34;68.48;95699.69;5079599;28;20204;-67
2023/07/21 07:35:17;;;;;;;2.17;1.08;;;;;;;23.39;67.70;95696.97;5078702;28;20204;-68
2023/07/21 07:37:44;;;;;;;4.03;1.73;;;;;;;23.50;66.99;95708.56;5078710;28;20253;-68
2023/07/21 07:40:11;;;;;;;1.30;1.15;;;;;;;23.61;67.74;95712.84;5078416;28;20259;-66
2023/07/21 07:42:38;;;;;;;9.90;1.40;;;;;;;23.51;69.67;95713.66;5078522;28;20207;-68
2023/07/21 07:45:07;;;;;;;3.17;1.45;;;;;;;23.90;70.61;95722.78;5078582;28;20211;-67
2023/07/21 07:47:34;;;;;;;2.45;1.45;;;;;;;23.23;68.19;95721.44;5077334;28;20207;-68
2023/07/21 07:50:01;;;;;;;1.75;1.13;;;;;;;23.42;68.31;95714.44;5077905;28;20223;-68
2023/07/21 07:52:28;;;;;;;1.35;0.80;;;;;;;23.35;68.62;95717.41;5077844;28;20207;-67
2023/07/21 07:54:54;;;;;;;2.08;1.02;;;;;;;23.81;67.97;95721.72;5077537;28;20218;-68
2023/07/21 07:57:21;;;;;;;4.53;1.48;;;;;;;23.76;66.17;95724.44;5076707;28;20204;-67
2023/07/21 07:59:47;;;;;;;3.40;0.82;;;;;;;23.94;65.75;95726.56;5077783;28;20252;-67
2023/07/21 08:02:15;;;;;;;3.92;1.27;;;;;;;24.07;64.54;95732.19;5077338;28;20238;-67
2023/07/21 08:04:42;;;;;;;7.28;1.95;;;;;;;23.97;65.93;95734.09;5078017;28;20208;-67
2023/07/21 08:07:08;;;;;;;1.90;0.88;;;;;;;23.98;66.44;95733.00;5077239;28;20204;-67
2023/07/21 08:09:35;;;;;;;2.28;1.20;;;;;;;24.21;64.35;95735.94;5076775;28;20687;-67
2023/07/21 08:12:01;;;;;;;1.58;0.88;;;;;;;24.30;63.40;95744.25;5076003;28;20223;-67
2023/07/21 08:14:28;;;;;;;1.02;0.93;;;;;;;24.25;62.51;95745.09;5078555;28;20207;-67
2023/07/21 08:16:54;;;;;;;1.55;0.95;;;;;;;24.59;61.17;95737.97;5077475;28;20572;-67
2023/07/21 08:19:22;;;;;;;6.10;1.20;;;;;;;24.46;59.72;95732.41;5077658;28;20203;-68
2023/07/21 08:21:48;;;;;;;2.47;1.13;;;;;;;24.24;63.11;95729.19;5077216;28;20375;-68
2023/07/21 08:24:15;;;;;;;1.17;0.70;;;;;;;24.10;63.38;95728.16;5077235;28;20207;-68
2023/07/21 08:26:42;;;;;;;3.03;1.10;;;;;;;23.97;62.57;95724.13;5076900;28;21182;-67
2023/07/21 08:29:09;;;;;;;1.45;0.63;;;;;;;23.88;63.19;95733.03;5076147;28;20200;-66
2023/07/21 08:31:35;;;;;;;1.50;1.05;;;;;;;24.12;60.13;95731.38;5077541;28;20192;-67
2023/07/21 08:34:02;;;;;;;1.40;0.63;;;;;;;24.48;60.71;95730.22;5077621;28;20204;-67
2023/07/21 08:36:30;;;;;;;0.90;0.80;;;;;;;24.80;59.30;95724.16;5077426;28;20212;-68
2023/07/21 08:38:56;;;;;;;1.00;0.73;;;;;;;24.86;60.20;95727.63;5077383;28;20207;-68
2023/07/21 08:41:23;;;;;;;1.50;0.80;;;;;;;25.08;58.92;95728.09;5077401;28;20228;-67
2023/07/21 08:43:50;;;;;;;1.17;0.70;;;;;;;25.24;61.56;95728.53;5077405;28;20199;-66
2023/07/21 08:46:17;;;;;;;1.15;0.60;;;;;;;25.19;56.32;95727.75;5077669;28;20211;-67
2023/07/21 08:48:43;;;;;;;4.63;1.10;;;;;;;25.39;55.61;95727.59;5077800;28;20207;-67
2023/07/21 08:51:10;;;;;;;1.55;0.73;;;;;;;25.33;53.57;95737.63;5076779;28;20653;-66
2023/07/21 08:53:38;;;;;;;1.58;0.60;;;;;;;25.76;54.35;95741.38;5076959;28;20290;-68
2023/07/21 08:56:06;;;;;;;1.45;0.80;;;;;;;25.23;51.92;95734.19;5078236;28;20226;-68
2023/07/21 08:58:33;;;;;;;2.72;0.82;;;;;;;25.46;52.03;95730.81;5077216;28;20207;-67
2023/07/21 09:00:59;;;;;;;1.00;0.45;;;;;;;25.17;51.27;95726.41;5076504;28;20234;-67
2023/07/21 09:03:27;;;;;;;0.93;0.57;;;;;;;25.60;53.08;95729.88;5077370;28;20204;-67
2023/07/21 09:05:56;;;;;;;1.35;0.68;;;;;;;25.48;50.73;95731.31;5076702;28;20204;-68
2023/07/21 09:08:23;;;;;;;1.10;0.60;;;;;;;25.46;51.16;95734.28;5076183;28;20204;-68
2023/07/21 09:10:51;;;;;;;3.35;0.90;;;;;;;25.58;52.22;95731.25;5076836;28;20230;-67
2023/07/21 09:13:20;;;;;;;1.60;0.90;;;;;;;25.65;51.40;95735.22;5077470;28;20999;-67
2023/07/21 09:15:54;;;;;;;1.27;0.77;;;;;;;25.61;51.56;95733.38;5076349;28;20200;-68
2023/07/21 09:18:25;;;;;;;4.05;0.90;;;;;;;25.76;52.16;95731.38;5076200;28;20200;-67
2023/07/21 09:20:52;;;;;;;0.52;0.50;;;;;;;25.59;50.49;95724.75;5077024;28;20220;-68
2023/07/21 09:23:19;;;;;;;1.55;0.70;;;;;;;25.83;50.07;95718.38;5077002;28;21324;-68
2023/07/21 09:25:53;;;;;;;1.77;0.63;;;;;;;26.51;48.02;95720.66;5076660;28;20990;-67
2023/07/21 09:28:19;;;;;;;1.00;0.70;;;;;;;26.45;46.37;95721.78;5076588;28;20235;-67
2023/07/21 09:30:51;;;;;;;1.23;0.90;;;;;;;27.07;44.86;95716.19;5076849;28;20228;-68
2023/07/21 09:33:22;;;;;;;1.13;0.65;;;;;;;27.42;46.67;95701.03;5077211;28;20200;-67
2023/07/21 09:35:49;;;;;;;1.02;0.63;;;;;;;27.22;43.47;95706.75;5077031;28;20342;-68
2023/07/21 09:38:15;;;;;;;1.17;0.77;;;;;;;27.18;42.70;95700.31;5076622;28;20265;-66
2023/07/21 09:40:42;;;;;;;0.77;0.60;;;;;;;27.06;43.38;95701.03;5076747;28;20576;-68
2023/07/21 09:43:11;;;;;;;0.98;0.65;;;;;;;27.22;41.50;95695.91;5076849;28;20228;-68
2023/07/21 09:45:37;;;;;;;1.55;0.82;;;;;;;26.79;39.61;95696.22;5077319;28;20208;-67
2023/07/21 09:48:05;;;;;;;0.70;0.50;;;;;;;27.55;42.91;95684.03;5076177;28;20200;-68
2023/07/21 09:50:31;;;;;;;0.88;0.60;;;;;;;27.83;45.92;95691.19;5075767;28;20481;-68
2023/07/21 09:52:59;;;;;;;0.45;0.40;;;;;;;27.56;46.52;95680.28;5076510;28;20245;-68
2023/07/21 09:55:31;;;;;;;0.55;0.50;;;;;;;27.72;44.65;95673.50;5076490;28;20204;-67
2023/07/21 09:58:00;;;;;;;1.88;0.60;;;;;;;27.64;44.06;95674.19;5074632;28;20196;-67
2023/07/21 10:00:31;;;;;;;0.80;0.35;;;;;;;28.05;42.51;95675.88;5076027;28;20736;-67
2023/07/21 10:02:58;;;;;;;2.08;0.85;;;;;;;27.65;43.77;95681.22;5076965;28;20821;-68
2023/07/21 10:05:25;;;;;;;2.08;0.60;;;;;;;28.15;43.72;95673.00;5076423;28;20731;-68
2023/07/21 10:07:53;;;;;;;0.63;0.47;;;;;;;28.19;43.02;95682.13;5075421;28;20204;-68
2023/07/21 10:10:20;;;;;;;1.02;0.50;;;;;;;28.13;41.83;95685.22;5077291;28;20310;-67
2023/07/21 10:12:50;;;;;;;0.55;0.50;;;;;;;27.70;45.40;95687.34;5077066;28;20204;-67
2023/07/21 10:15:19;;;;;;;0.70;0.50;;;;;;;28.04;45.43;95681.59;5077057;28;20604;-68
2023/07/21 10:17:57;;;;;;;0.45;0.45;;;;;;;28.28;46.08;95690.38;5076026;28;20286;-67
2023/07/21 10:20:38;;;;;;;1.98;0.85;;;;;;;28.40;43.00;95686.88;5075930;28;20224;-68
2023/07/21 10:23:05;;;;;;;1.13;0.65;;;;;;;28.49;43.50;95695.91;5076658;28;20234;-67
2023/07/21 10:25:56;;;;;;;0.90;0.70;;;;;;;29.26;42.22;95692.91;5076473;28;20208;-67
2023/07/21 10:28:24;;;;;;;2.10;0.70;;;;;;;28.72;40.98;95699.53;5075652;28;20200;-68
2023/07/21 10:30:52;;;;;;;1.35;0.82;;;;;;;29.22;41.93;95693.84;5076301;28;20285;-67
2023/07/21 10:33:21;;;;;;;1.00;0.73;;;;;;;29.32;40.85;95691.72;5078647;28;20223;-67
2023/07/21 10:35:49;;;;;;;1.13;0.70;;;;;;;28.83;39.34;95699.06;5079573;28;20200;-68
2023/07/21 10:38:19;;;;;;;0.60;0.55;;;;;;;28.56;39.84;95696.31;5079360;28;20196;-68
2023/07/21 10:40:47;;;;;;;1.67;0.70;;;;;;;28.85;39.91;95694.13;5079679;28;20234;-67
2023/07/21 10:43:14;;;;;;;1.15;0.57;;;;;;;29.28;40.19;95693.41;5080002;28;20223;-67
2023/07/21 10:45:40;;;;;;;0.65;0.50;;;;;;;29.46;39.83;95688.97;5079406;28;20228;-68
2023/07/21 10:48:11;;;;;;;0.85;0.60;;;;;;;29.24;42.22;95687.00;5079196;28;20424;-68
2023/07/21 10:50:40;;;;;;;4.50;0.73;;;;;;;29.58;40.66;95692.72;5080136;28;20227;-68
2023/07/21 10:53:07;;;;;;;1.00;0.60;;;;;;;29.05;40.45;95685.56;5079996;28;20197;-68
2023/07/21 10:55:36;;;;;;;1.00;0.50;;;;;;;28.42;39.65;95684.69;5080317;28;20208;-67
2023/07/21 10:58:02;;;;;;;0.57;0.57;;;;;;;28.50;41.83;95688.56;5078429;28;20207;-68
2023/07/21 11:00:29;;;;;;;1.38;0.63;;;;;;;27.95;41.81;95699.63;5078731;28;20219;-68
2023/07/21 11:02:57;;;;;;;1.17;0.63;;;;;;;27.85;41.40;95699.81;5080120;28;20220;-68
2023/07/21 11:05:23;;;;;;;0.65;0.52;;;;;;;27.25;41.80;95692.66;5079610;28;20214;-67
2023/07/21 11:07:51;;;;;;;0.90;0.70;;;;;;;26.94;46.81;95692.53;5077735;28;20208;-69
2023/07/21 11:10:18;;;;;;;1.70;0.70;;;;;;;26.57;45.34;95700.59;5078643;28;20715;-70
2023/07/21 11:12:50;;;;;;;1.27;0.75;;;;;;;26.98;45.82;95704.41;5079876;28;20215;-67
2023/07/21 11:15:17;;;;;;;1.35;0.75;;;;;;;26.72;45.17;95695.00;5079177;28;20208;-69
2023/07/21 11:17:45;;;;;;;2.85;0.88;;;;;;;26.84;47.71;95698.06;5077947;28;20694;-66
2023/07/21 11:20:14;;;;;;;1.38;0.98;;;;;;;26.79;47.50;95700.84;5078492;28;20711;-67
2023/07/21 11:22:41;;;;;;;0.75;0.70;;;;;;;26.67;46.06;95695.84;5078323;28;20228;-70
2023/07/21 11:25:10;;;;;;;1.83;0.88;;;;;;;26.88;47.43;95697.19;5077509;28;20206;-70
2023/07/21 11:27:41;;;;;;;1.25;0.80;;;;;;;26.67;47.09;95697.75;5077855;28;20204;-71
2023/07/21 11:30:09;;;;;;;1.35;0.77;;;;;;;26.89;48.00;95698.00;5077693;28;20228;-68
2023/07/21 11:32:35;;;;;;;1.58;0.80;;;;;;;26.87;45.76;95698.31;5078186;28;20679;-71